Sherman, South Dakota
Current Conditions -  °F | °C
As of 6:56 AM on Friday 24 Oct 2014 (Local Time) from KFSD Reporting Station
Haze Haze  
Wind Chill: 52°   Ceiling: Unl
Heat Index: 52°   Visibility: 3mi
Dew Point: 50°   Wind: 6mph
Humidity: 93%   Direction: 220°SW
Pressure: 29.85"   Gusts: NA
Location:  43.7606°N, 96.5516°W
Report Text: KFSD 241156Z 22005KT 3SM BR CLR 11/10 A2985 RMK AO2 SLP108 T01110100 10133 20100 55002
Loading
Personal Weather Stations






























Interactive Weather Map New forecast layout! Learn more

10-Day Weather Forecast

Advertisements
Track Severe Weather on mobile